VLG3EN LEBL-LFMN
Flight info
| Callsign | VLG3EN |
|---|---|
| Flight time | N/A |
| Altitude | 30000 |
| Route | DALIN L16 BGR L110 DIBER DCT SOSUR DCT SOFFY DCT MRM DCT ABLAK |
| Aircraft | A320/M-SDE3FGHIRWY/LB1 |
Departure
| Time | 2026-05-07 15:15 |
|---|---|
| Airport | Josep Tarradellas Barcelona-El Prat Airport (LEBL) |
Arrival
| Time | N/A |
|---|---|
| Airport | Nice-Côte d'Azur Airport (LFMN) |
| Time | Latitude | Longitude | Altitude | Speed | Heading |
|---|---|---|---|---|---|
| 2026-05-07 14:58 | 41.29070 | 2.08163 | 19 ft | 0 kts | 336° |
| 2026-05-07 15:01 | 41.29059 | 2.08170 | 20 ft | 2 kts | 335° |
| 2026-05-07 15:01 | 41.29044 | 2.08179 | 22 ft | 2 kts | 333° |
| 2026-05-07 15:01 | 41.29029 | 2.08189 | 19 ft | 2 kts | 336° |
| 2026-05-07 15:02 | 41.29015 | 2.08199 | 22 ft | 2 kts | 317° |
| 2026-05-07 15:02 | 41.29005 | 2.08216 | 22 ft | 2 kts | 280° |
| 2026-05-07 15:02 | 41.29004 | 2.08234 | 22 ft | 1 kts | 251° |
| 2026-05-07 15:02 | 41.29005 | 2.08236 | 22 ft | 0 kts | 249° |
| 2026-05-07 15:09 | 41.29002 | 2.08228 | 22 ft | 4 kts | 247° |
| 2026-05-07 15:09 | 41.28978 | 2.08159 | 20 ft | 11 kts | 245° |
| 2026-05-07 15:09 | 41.28906 | 2.08148 | 18 ft | 15 kts | 155° |
| 2026-05-07 15:09 | 41.28788 | 2.08216 | 17 ft | 12 kts | 168° |
| 2026-05-07 15:10 | 41.28714 | 2.08219 | 17 ft | 12 kts | 190° |
| 2026-05-07 15:10 | 41.28651 | 2.08117 | 19 ft | 18 kts | 246° |
| 2026-05-07 15:10 | 41.28588 | 2.07929 | 17 ft | 26 kts | 248° |
| 2026-05-07 15:10 | 41.28502 | 2.07680 | 17 ft | 33 kts | 246° |
| 2026-05-07 15:11 | 41.28406 | 2.07456 | 17 ft | 21 kts | 194° |
| 2026-05-07 15:11 | 41.28359 | 2.07441 | 18 ft | 0 kts | 199° |
| 2026-05-07 15:11 | 41.28333 | 2.07427 | 17 ft | 8 kts | 202° |
| 2026-05-07 15:12 | 41.28260 | 2.07409 | 19 ft | 11 kts | 163° |
| 2026-05-07 15:12 | 41.28250 | 2.07495 | 20 ft | 6 kts | 65° |
| 2026-05-07 15:14 | 41.28251 | 2.07497 | 19 ft | 2 kts | 65° |
| 2026-05-07 15:14 | 41.28340 | 2.07760 | 19 ft | 65 kts | 65° |
| 2026-05-07 15:14 | 41.28615 | 2.08562 | 24 ft | 121 kts | 66° |
| 2026-05-07 15:14 | 41.29030 | 2.09740 | 166 ft | 150 kts | 67° |
| 2026-05-07 15:15 | 41.29442 | 2.11036 | 686 ft | 154 kts | 81° |
| 2026-05-07 15:15 | 41.29245 | 2.12404 | 1345 ft | 153 kts | 117° |
| 2026-05-07 15:15 | 41.28933 | 2.13742 | 1975 ft | 156 kts | 99° |
| 2026-05-07 15:15 | 41.28827 | 2.15253 | 2358 ft | 172 kts | 95° |
| 2026-05-07 15:16 | 41.28751 | 2.16911 | 2721 ft | 188 kts | 94° |
| 2026-05-07 15:16 | 41.28665 | 2.18733 | 3043 ft | 208 kts | 94° |
| 2026-05-07 15:16 | 41.28563 | 2.20723 | 3503 ft | 224 kts | 94° |
| 2026-05-07 15:16 | 41.28441 | 2.22869 | 4004 ft | 241 kts | 94° |
| 2026-05-07 15:17 | 41.28590 | 2.25136 | 4571 ft | 256 kts | 67° |
| 2026-05-07 15:17 | 41.29543 | 2.27187 | 5299 ft | 264 kts | 56° |
| 2026-05-07 15:17 | 41.30574 | 2.29221 | 6121 ft | 268 kts | 57° |
| 2026-05-07 15:17 | 41.31581 | 2.31328 | 6937 ft | 272 kts | 58° |
| 2026-05-07 15:18 | 41.32564 | 2.33502 | 7702 ft | 276 kts | 59° |
| 2026-05-07 15:18 | 41.33535 | 2.35733 | 8467 ft | 281 kts | 60° |
| 2026-05-07 15:18 | 41.34508 | 2.38012 | 9226 ft | 285 kts | 60° |
| 2026-05-07 15:18 | 41.35485 | 2.40329 | 9960 ft | 290 kts | 60° |
| 2026-05-07 15:19 | 41.36479 | 2.42693 | 10624 ft | 295 kts | 61° |
| 2026-05-07 15:19 | 41.37502 | 2.45139 | 11018 ft | 311 kts | 61° |
| 2026-05-07 15:19 | 41.38551 | 2.47645 | 11339 ft | 327 kts | 61° |
| 2026-05-07 15:19 | 41.39687 | 2.50356 | 11635 ft | 343 kts | 61° |
| 2026-05-07 15:20 | 41.40876 | 2.53199 | 11902 ft | 360 kts | 61° |
| 2026-05-07 15:20 | 41.42119 | 2.56172 | 12225 ft | 373 kts | 61° |
| 2026-05-07 15:20 | 41.43390 | 2.59211 | 12795 ft | 378 kts | 61° |
| 2026-05-07 15:20 | 41.44670 | 2.62288 | 13423 ft | 382 kts | 61° |
| 2026-05-07 15:21 | 41.45956 | 2.65404 | 14010 ft | 386 kts | 62° |
| 2026-05-07 15:21 | 41.47251 | 2.68563 | 14524 ft | 390 kts | 62° |
| 2026-05-07 15:21 | 41.48554 | 2.71756 | 15054 ft | 394 kts | 62° |
| 2026-05-07 15:21 | 41.49868 | 2.74982 | 15590 ft | 397 kts | 62° |
| 2026-05-07 15:22 | 41.51194 | 2.78233 | 16125 ft | 401 kts | 62° |
| 2026-05-07 15:22 | 41.52532 | 2.81516 | 16668 ft | 404 kts | 62° |
| 2026-05-07 15:22 | 41.53901 | 2.84871 | 17237 ft | 408 kts | 62° |
| 2026-05-07 15:22 | 41.55244 | 2.88164 | 17782 ft | 412 kts | 62° |
| 2026-05-07 15:23 | 41.56638 | 2.91589 | 18339 ft | 416 kts | 62° |
| 2026-05-07 15:23 | 41.58027 | 2.95005 | 18807 ft | 421 kts | 62° |
| 2026-05-07 15:23 | 41.59429 | 2.98457 | 19287 ft | 425 kts | 62° |
| 2026-05-07 15:23 | 41.60840 | 3.01941 | 19755 ft | 429 kts | 62° |
| 2026-05-07 15:24 | 41.62265 | 3.05461 | 20216 ft | 433 kts | 62° |
| 2026-05-07 15:24 | 41.63704 | 3.09022 | 20660 ft | 437 kts | 62° |
| 2026-05-07 15:24 | 41.65155 | 3.12611 | 21079 ft | 441 kts | 62° |
| 2026-05-07 15:24 | 41.66616 | 3.16228 | 21487 ft | 444 kts | 62° |
| 2026-05-07 15:25 | 41.68082 | 3.19883 | 21872 ft | 448 kts | 63° |
| 2026-05-07 15:25 | 41.69478 | 3.23628 | 22252 ft | 451 kts | 65° |
| 2026-05-07 15:25 | 41.70786 | 3.27458 | 22625 ft | 454 kts | 67° |
| 2026-05-07 15:25 | 41.72043 | 3.31352 | 22991 ft | 458 kts | 68° |
| 2026-05-07 15:26 | 41.73290 | 3.35288 | 23348 ft | 461 kts | 68° |
| 2026-05-07 15:26 | 41.74553 | 3.39250 | 23671 ft | 464 kts | 68° |
| 2026-05-07 15:26 | 41.75841 | 3.43230 | 23957 ft | 468 kts | 67° |
| 2026-05-07 15:26 | 41.77158 | 3.47233 | 24231 ft | 471 kts | 67° |
| 2026-05-07 15:27 | 41.78495 | 3.51256 | 24484 ft | 474 kts | 67° |
| 2026-05-07 15:27 | 41.79846 | 3.55299 | 24765 ft | 477 kts | 67° |
| 2026-05-07 15:27 | 41.81206 | 3.59369 | 25033 ft | 480 kts | 67° |
| 2026-05-07 15:27 | 41.82575 | 3.63472 | 25291 ft | 484 kts | 67° |
| 2026-05-07 15:28 | 41.83946 | 3.67610 | 25562 ft | 487 kts | 67° |
| 2026-05-07 15:28 | 41.85319 | 3.71776 | 25826 ft | 490 kts | 68° |
| 2026-05-07 15:28 | 41.86684 | 3.75925 | 26086 ft | 493 kts | 68° |
| 2026-05-07 15:28 | 41.88072 | 3.80153 | 26347 ft | 496 kts | 68° |
| 2026-05-07 15:29 | 41.89461 | 3.84402 | 26640 ft | 498 kts | 68° |
| 2026-05-07 15:29 | 41.90869 | 3.88720 | 27027 ft | 498 kts | 68° |
| 2026-05-07 15:29 | 41.92243 | 3.92926 | 27396 ft | 499 kts | 68° |
| 2026-05-07 15:29 | 41.93659 | 3.97246 | 27747 ft | 500 kts | 68° |
| 2026-05-07 15:30 | 41.95062 | 4.01534 | 28112 ft | 501 kts | 68° |
| 2026-05-07 15:30 | 41.96461 | 4.05824 | 28459 ft | 502 kts | 68° |
| 2026-05-07 15:30 | 41.97861 | 4.10135 | 28733 ft | 505 kts | 68° |
| 2026-05-07 15:30 | 41.99271 | 4.14480 | 29030 ft | 507 kts | 68° |
| 2026-05-07 15:31 | 42.00681 | 4.18830 | 29380 ft | 509 kts | 68° |
| 2026-05-07 15:31 | 42.02094 | 4.23198 | 29731 ft | 510 kts | 69° |
| 2026-05-07 15:31 | 42.03507 | 4.27578 | 29962 ft | 513 kts | 69° |
| 2026-05-07 15:31 | 42.04933 | 4.32013 | 29989 ft | 521 kts | 69° |
| 2026-05-07 15:32 | 42.08330 | 4.40679 | 29982 ft | 526 kts | 54° |
| 2026-05-07 15:32 | 42.13292 | 4.47879 | 29987 ft | 525 kts | 39° |
| 2026-05-07 15:33 | 42.18754 | 4.54412 | 29985 ft | 526 kts | 40° |
| 2026-05-07 15:33 | 42.24127 | 4.60906 | 29980 ft | 526 kts | 40° |
| 2026-05-07 15:34 | 42.29574 | 4.67516 | 29993 ft | 526 kts | 40° |
| 2026-05-07 15:34 | 42.35021 | 4.74127 | 29998 ft | 526 kts | 40° |
| 2026-05-07 15:35 | 42.40465 | 4.80739 | 29999 ft | 526 kts | 39° |
| 2026-05-07 15:35 | 42.45905 | 4.87353 | 29999 ft | 526 kts | 39° |
| 2026-05-07 15:36 | 42.51338 | 4.94001 | 30002 ft | 525 kts | 39° |
| 2026-05-07 15:36 | 42.57321 | 4.99608 | 30004 ft | 516 kts | 21° |
| 2026-05-07 15:37 | 42.63986 | 5.02875 | 29998 ft | 506 kts | 10° |
| 2026-05-07 15:37 | 42.70745 | 5.05525 | 30006 ft | 505 kts | 10° |
| 2026-05-07 15:38 | 42.77483 | 5.08228 | 30006 ft | 505 kts | 10° |
| 2026-05-07 15:38 | 42.84208 | 5.10932 | 30008 ft | 503 kts | 10° |
| 2026-05-07 15:39 | 42.89787 | 5.13164 | 30006 ft | 502 kts | 10° |
| 2026-05-07 15:39 | 42.96488 | 5.15836 | 30004 ft | 501 kts | 10° |
| 2026-05-07 15:40 | 43.03144 | 5.18480 | 30001 ft | 500 kts | 10° |
| 2026-05-07 15:40 | 43.09811 | 5.21179 | 30004 ft | 500 kts | 11° |
| 2026-05-07 15:41 | 43.13113 | 5.22536 | 29971 ft | 489 kts | 11° |
| 2026-05-07 15:41 | 43.16363 | 5.23878 | 29969 ft | 487 kts | 11° |
| 2026-05-07 15:41 | 43.19536 | 5.25186 | 29434 ft | 480 kts | 11° |
| 2026-05-07 15:41 | 43.22735 | 5.26502 | 27469 ft | 485 kts | 12° |
| 2026-05-07 15:42 | 43.25999 | 5.27833 | 25700 ft | 490 kts | 13° |
| 2026-05-07 15:42 | 43.29209 | 5.29143 | 25075 ft | 468 kts | 13° |
| 2026-05-07 15:42 | 43.32236 | 5.30387 | 24860 ft | 447 kts | 14° |
| 2026-05-07 15:42 | 43.35260 | 5.31643 | 24091 ft | 457 kts | 16° |
| 2026-05-07 15:43 | 43.38201 | 5.33312 | 23304 ft | 458 kts | 25° |
| 2026-05-07 15:43 | 43.40944 | 5.35525 | 22513 ft | 456 kts | 32° |
| 2026-05-07 15:43 | 43.43573 | 5.37918 | 21782 ft | 451 kts | 32° |
| 2026-05-07 15:43 | 43.46163 | 5.40325 | 21049 ft | 447 kts | 36° |
| 2026-05-07 15:44 | 43.48476 | 5.43154 | 20308 ft | 444 kts | 46° |
| 2026-05-07 15:44 | 43.50389 | 5.46446 | 19684 ft | 439 kts | 57° |
| 2026-05-07 15:44 | 43.51870 | 5.50147 | 19561 ft | 444 kts | 66° |
| 2026-05-07 15:44 | 43.53016 | 5.54092 | 19333 ft | 442 kts | 69° |
| 2026-05-07 15:45 | 43.54100 | 5.57948 | 19079 ft | 440 kts | 69° |
| 2026-05-07 15:45 | 43.55229 | 5.61961 | 18822 ft | 438 kts | 69° |
| 2026-05-07 15:45 | 43.56282 | 5.65892 | 18574 ft | 436 kts | 74° |
| 2026-05-07 15:45 | 43.56937 | 5.69950 | 18326 ft | 433 kts | 83° |
| 2026-05-07 15:46 | 43.57495 | 5.78175 | 17817 ft | 429 kts | 86° |
| 2026-05-07 15:46 | 43.57765 | 5.82256 | 17576 ft | 427 kts | 86° |
| 2026-05-07 15:46 | 43.58039 | 5.86329 | 17330 ft | 426 kts | 85° |
| 2026-05-07 15:47 | 43.58310 | 5.90383 | 17094 ft | 424 kts | 86° |
| 2026-05-07 15:47 | 43.58578 | 5.94424 | 16860 ft | 423 kts | 86° |
| 2026-05-07 15:47 | 43.58837 | 5.98463 | 16621 ft | 421 kts | 86° |
| 2026-05-07 15:47 | 43.59093 | 6.02473 | 16389 ft | 420 kts | 86° |
| 2026-05-07 15:48 | 43.59306 | 6.06534 | 16146 ft | 418 kts | 90° |
| 2026-05-07 15:48 | 43.59109 | 6.10464 | 15917 ft | 415 kts | 100° |
| 2026-05-07 15:48 | 43.58443 | 6.14384 | 15043 ft | 417 kts | 110° |
| 2026-05-07 15:48 | 43.57405 | 6.18153 | 13989 ft | 423 kts | 112° |
| 2026-05-07 15:49 | 43.56346 | 6.21921 | 13253 ft | 419 kts | 112° |
| 2026-05-07 15:49 | 43.55326 | 6.25585 | 12864 ft | 394 kts | 112° |
| 2026-05-07 15:49 | 43.54390 | 6.28983 | 12610 ft | 364 kts | 112° |
| 2026-05-07 15:49 | 43.53530 | 6.32113 | 12464 ft | 335 kts | 112° |
| 2026-05-07 15:50 | 43.52733 | 6.35003 | 12275 ft | 313 kts | 112° |
| 2026-05-07 15:50 | 43.51973 | 6.37754 | 11907 ft | 301 kts | 112° |
| 2026-05-07 15:50 | 43.51226 | 6.40441 | 11939 ft | 302 kts | 112° |
| 2026-05-07 15:50 | 43.50348 | 6.43065 | 11944 ft | 301 kts | 123° |
| 2026-05-07 15:51 | 43.49089 | 6.45373 | 11621 ft | 303 kts | 135° |
| 2026-05-07 15:51 | 43.47623 | 6.47456 | 11267 ft | 301 kts | 135° |
| 2026-05-07 15:51 | 43.46172 | 6.49529 | 10853 ft | 302 kts | 134° |
| 2026-05-07 15:51 | 43.44729 | 6.51599 | 10555 ft | 298 kts | 134° |
| 2026-05-07 15:52 | 43.43295 | 6.53664 | 10170 ft | 297 kts | 134° |
| 2026-05-07 15:52 | 43.41876 | 6.55708 | 9869 ft | 294 kts | 134° |
| 2026-05-07 15:52 | 43.40514 | 6.57799 | 9459 ft | 293 kts | 124° |
| 2026-05-07 15:52 | 43.39621 | 6.60292 | 9081 ft | 291 kts | 106° |
| 2026-05-07 15:53 | 43.39348 | 6.63032 | 8701 ft | 290 kts | 87° |